Time;durP1;ratioP1;P1;durP2;ratioP2;P2;SDS_P1;SDS_P2;PMS_P1;PMS_P2;Temp;Humidity;BMP_temperature;BMP_pressure;BME280_temperature;BME280_humidity;BME280_pressure;Samples;Min_cycle;Max_cycle;Signal;HPM_P1;HPM_P2
2021/09/04 00:01:51;;;;;;;7.90;1.25;;;14.20;83.40;;;;;;5031679;28;20480;-66
2021/09/04 00:04:18;;;;;;;4.10;1.13;;;14.20;83.60;;;;;;5029411;28;20025;-66
2021/09/04 00:06:44;;;;;;;4.00;1.10;;;14.20;83.70;;;;;;5034768;28;20025;-66
2021/09/04 00:09:13;;;;;;;2.30;0.82;;;14.10;83.60;;;;;;5028708;28;20025;-66
2021/09/04 00:11:39;;;;;;;10.40;1.50;;;14.10;83.70;;;;;;5028690;28;20500;-68
2021/09/04 00:14:06;;;;;;;3.35;1.17;;;14.20;83.70;;;;;;5024748;28;20032;-67
2021/09/04 00:16:32;;;;;;;4.50;0.88;;;14.20;83.70;;;;;;5028002;28;20516;-68
2021/09/04 00:18:59;;;;;;;3.90;1.40;;;14.20;83.70;;;;;;5033369;28;21709;-69
2021/09/04 00:21:25;;;;;;;2.15;1.35;;;14.10;83.70;;;;;;5030478;28;20061;-66
2021/09/04 00:23:52;;;;;;;2.75;1.00;;;14.10;83.80;;;;;;5026722;28;20028;-66
2021/09/04 00:26:22;;;;;;;4.18;0.98;;;14.10;84.10;;;;;;5028209;28;20022;-66
2021/09/04 00:28:49;;;;;;;3.70;1.35;;;14.10;84.20;;;;;;5029571;28;20031;-66
2021/09/04 00:31:16;;;;;;;5.57;1.02;;;14.00;84.40;;;;;;5031471;28;20384;-67
2021/09/04 00:33:42;;;;;;;9.20;1.55;;;14.00;84.40;;;;;;5031718;28;20029;-67
2021/09/04 00:36:08;;;;;;;7.45;1.23;;;14.00;84.40;;;;;;5031643;28;20022;-66
2021/09/04 00:38:35;;;;;;;7.82;1.50;;;14.00;84.30;;;;;;5020969;28;20522;-66
2021/09/04 00:41:01;;;;;;;8.15;1.35;;;14.00;84.10;;;;;;5033464;28;20021;-66
2021/09/04 00:43:28;;;;;;;6.63;1.55;;;14.00;84.00;;;;;;5029282;28;20017;-66
2021/09/04 00:45:54;;;;;;;5.13;0.82;;;14.00;83.80;;;;;;5027105;28;20017;-66
2021/09/04 00:48:21;;;;;;;4.43;1.77;;;14.00;83.60;;;;;;5031604;28;20017;-67
2021/09/04 00:50:47;;;;;;;5.47;1.83;;;14.00;83.50;;;;;;5030472;28;20025;-67
2021/09/04 00:53:15;;;;;;;2.78;1.20;;;14.00;83.50;;;;;;5031079;28;20050;-66
2021/09/04 00:55:41;;;;;;;2.35;0.98;;;14.00;83.30;;;;;;5030561;28;20044;-67
2021/09/04 00:58:08;;;;;;;3.85;1.27;;;13.90;83.30;;;;;;5029324;28;20033;-66
2021/09/04 01:00:35;;;;;;;3.35;2.28;;;13.90;83.40;;;;;;5030940;28;20030;-66
2021/09/04 01:03:01;;;;;;;5.22;1.35;;;13.90;83.60;;;;;;5027259;28;20021;-66
2021/09/04 01:05:28;;;;;;;4.70;1.10;;;13.90;83.80;;;;;;5032039;28;20649;-67
2021/09/04 01:07:54;;;;;;;3.75;0.98;;;13.90;83.80;;;;;;5028886;28;20037;-67
2021/09/04 01:10:21;;;;;;;3.45;1.08;;;13.90;83.80;;;;;;5029750;28;20044;-67
2021/09/04 01:12:47;;;;;;;5.07;1.00;;;13.90;84.20;;;;;;5031336;28;20029;-66
2021/09/04 01:15:14;;;;;;;2.15;0.90;;;13.80;84.10;;;;;;5029126;28;20013;-66
2021/09/04 01:17:40;;;;;;;5.03;1.60;;;13.80;84.30;;;;;;5031127;28;20033;-66
2021/09/04 01:20:08;;;;;;;5.38;1.67;;;13.80;84.50;;;;;;5026735;28;20020;-66
2021/09/04 01:22:35;;;;;;;4.18;1.70;;;13.80;84.50;;;;;;5025969;28;20056;-66
2021/09/04 01:25:06;;;;;;;6.75;1.52;;;13.80;84.70;;;;;;5030295;28;20021;-66
2021/09/04 01:27:35;;;;;;;3.92;0.80;;;13.80;85.00;;;;;;5030895;28;20022;-68
2021/09/04 01:30:02;;;;;;;5.82;1.55;;;13.80;84.80;;;;;;5025677;28;20021;-66
2021/09/04 01:32:29;;;;;;;7.15;1.50;;;13.80;84.90;;;;;;5029914;28;20357;-67
2021/09/04 01:35:04;;;;;;;6.03;1.02;;;13.80;84.90;;;;;;5029950;28;20017;-67
2021/09/04 01:37:30;;;;;;;9.10;1.33;;;13.80;85.10;;;;;;5029361;28;20029;-67
2021/09/04 01:39:57;;;;;;;4.10;1.27;;;13.80;85.30;;;;;;5025742;28;20485;-66
2021/09/04 01:42:23;;;;;;;4.13;1.33;;;13.80;85.50;;;;;;5025183;28;20104;-66
2021/09/04 01:44:50;;;;;;;5.70;1.38;;;13.80;85.60;;;;;;5029482;28;20022;-66
2021/09/04 01:47:16;;;;;;;5.05;1.70;;;13.90;85.70;;;;;;5027957;28;20060;-67
2021/09/04 01:49:42;;;;;;;1.63;0.70;;;13.80;86.00;;;;;;5031479;28;20022;-66
2021/09/04 01:52:09;;;;;;;4.22;1.10;;;13.80;86.20;;;;;;5028543;28;20017;-67
2021/09/04 01:54:35;;;;;;;8.00;1.63;;;13.90;86.10;;;;;;5031012;28;20060;-66
2021/09/04 01:57:02;;;;;;;3.95;1.00;;;13.90;86.40;;;;;;5025323;28;20403;-66
2021/09/04 01:59:29;;;;;;;2.92;0.80;;;13.90;86.40;;;;;;5027420;28;20026;-66
2021/09/04 02:01:55;;;;;;;3.88;1.35;;;13.90;86.50;;;;;;5025085;28;20381;-66
2021/09/04 02:04:22;;;;;;;5.45;1.17;;;13.80;86.60;;;;;;5025603;28;20557;-66
2021/09/04 02:06:48;;;;;;;10.05;1.00;;;13.90;87.10;;;;;;5030449;28;20090;-66
2021/09/04 02:09:15;;;;;;;8.27;0.98;;;13.80;87.30;;;;;;5026925;28;20484;-66
2021/09/04 02:11:41;;;;;;;8.85;1.67;;;13.80;87.70;;;;;;5030813;28;20030;-67
2021/09/04 02:14:07;;;;;;;4.95;0.95;;;13.80;87.80;;;;;;5026257;28;20024;-66
2021/09/04 02:16:34;;;;;;;7.05;2.08;;;13.80;87.90;;;;;;5029180;28;20144;-67
2021/09/04 02:19:00;;;;;;;5.53;1.08;;;13.80;87.80;;;;;;5029040;28;20026;-66
2021/09/04 02:21:27;;;;;;;4.50;1.10;;;13.80;87.70;;;;;;5029758;28;20018;-66
2021/09/04 02:23:53;;;;;;;53.35;37.88;;;13.80;87.80;;;;;;5028150;28;20121;-65
2021/09/04 02:26:20;;;;;;;27.88;20.85;;;13.80;87.80;;;;;;5028383;28;20407;-66
2021/09/04 02:28:46;;;;;;;12.10;6.82;;;13.80;88.10;;;;;;5024110;28;20018;-65
2021/09/04 02:31:12;;;;;;;7.00;2.17;;;13.80;88.10;;;;;;5024297;28;20022;-66
2021/09/04 02:33:39;;;;;;;6.22;1.60;;;13.70;88.10;;;;;;5028329;28;20076;-66
2021/09/04 02:36:05;;;;;;;7.55;1.50;;;13.70;88.20;;;;;;5026293;28;20053;-66
2021/09/04 02:38:32;;;;;;;10.02;1.13;;;13.70;88.50;;;;;;5028359;28;20010;-66
2021/09/04 02:40:58;;;;;;;4.93;1.33;;;13.70;88.60;;;;;;5028212;28;20017;-66
2021/09/04 02:43:25;;;;;;;8.88;2.30;;;13.70;88.80;;;;;;5030424;28;20109;-65
2021/09/04 02:45:51;;;;;;;7.80;1.33;;;13.70;88.80;;;;;;5028675;28;20060;-66
2021/09/04 02:48:18;;;;;;;4.28;1.52;;;13.70;89.10;;;;;;5030380;28;20031;-66
2021/09/04 02:50:44;;;;;;;5.63;2.00;;;13.60;89.00;;;;;;5030031;28;20022;-65
2021/09/04 02:53:10;;;;;;;6.15;1.90;;;13.60;89.10;;;;;;5031405;28;20022;-66
2021/09/04 02:55:37;;;;;;;4.85;1.90;;;13.60;89.60;;;;;;5031624;28;20416;-70
2021/09/04 02:58:03;;;;;;;3.03;1.05;;;13.60;89.80;;;;;;5032042;28;20416;-66
2021/09/04 03:00:30;;;;;;;5.05;1.35;;;13.70;90.00;;;;;;5029376;28;20075;-66
2021/09/04 03:02:57;;;;;;;4.32;1.63;;;13.70;89.90;;;;;;5030631;28;20021;-66
2021/09/04 03:05:24;;;;;;;4.78;1.13;;;13.70;90.00;;;;;;5029849;28;20377;-66
2021/09/04 03:07:51;;;;;;;5.15;1.52;;;13.70;90.00;;;;;;5030654;28;20028;-68
2021/09/04 03:10:18;;;;;;;5.28;1.42;;;13.70;89.90;;;;;;5030256;28;20022;-66
2021/09/04 03:12:44;;;;;;;6.90;1.33;;;13.80;89.90;;;;;;5030951;28;20107;-67
2021/09/04 03:15:11;;;;;;;8.07;2.10;;;13.80;90.00;;;;;;5025979;28;20053;-66
2021/09/04 03:17:38;;;;;;;6.82;1.60;;;13.80;90.00;;;;;;5029892;28;20117;-65
2021/09/04 03:20:05;;;;;;;40.67;27.60;;;13.80;90.00;;;;;;5032598;28;20028;-65
2021/09/04 03:22:31;;;;;;;14.35;11.45;;;13.80;90.20;;;;;;5031475;28;20389;-66
2021/09/04 03:24:58;;;;;;;8.18;2.38;;;13.80;89.90;;;;;;5031292;28;20037;-65
2021/09/04 03:27:24;;;;;;;4.55;1.65;;;13.80;89.60;;;;;;5020463;28;20036;-65
2021/09/04 03:29:54;;;;;;;4.85;1.30;;;13.70;89.50;;;;;;5026770;28;20369;-70
2021/09/04 03:32:20;;;;;;;5.07;1.60;;;13.70;89.60;;;;;;5027937;28;20550;-68
2021/09/04 03:34:47;;;;;;;10.25;2.35;;;13.70;89.70;;;;;;5027604;28;20954;-66
2021/09/04 03:37:13;;;;;;;3.35;1.48;;;13.70;89.60;;;;;;5026628;28;20112;-65
2021/09/04 03:39:40;;;;;;;3.38;1.88;;;13.70;89.50;;;;;;5030001;28;20013;-65
2021/09/04 03:42:06;;;;;;;3.58;1.00;;;13.70;89.40;;;;;;5029898;28;20515;-66
2021/09/04 03:44:33;;;;;;;10.30;2.22;;;13.70;89.50;;;;;;5028512;28;20017;-66
2021/09/04 03:46:59;;;;;;;3.13;0.90;;;13.60;89.40;;;;;;5029774;28;20547;-66
2021/09/04 03:49:26;;;;;;;11.60;1.55;;;13.60;89.40;;;;;;5029837;28;20062;-66
2021/09/04 03:51:52;;;;;;;3.72;1.00;;;13.60;89.40;;;;;;5029896;28;20026;-68
2021/09/04 03:54:19;;;;;;;8.02;1.15;;;13.60;89.30;;;;;;5031629;28;20484;-67
2021/09/04 03:56:45;;;;;;;4.45;1.13;;;13.60;88.90;;;;;;5029185;28;20073;-66
2021/09/04 03:59:12;;;;;;;6.28;0.90;;;13.60;88.90;;;;;;5026772;28;20022;-66
2021/09/04 04:01:38;;;;;;;3.42;1.10;;;13.60;88.90;;;;;;5028403;28;20108;-66
2021/09/04 04:04:05;;;;;;;5.80;1.15;;;13.60;88.90;;;;;;5029246;28;20033;-65
2021/09/04 04:06:32;;;;;;;15.20;3.10;;;13.60;89.00;;;;;;5027531;28;20146;-66
2021/09/04 04:08:59;;;;;;;3.70;1.92;;;13.60;89.10;;;;;;5030200;28;20021;-66
2021/09/04 04:11:26;;;;;;;3.50;0.80;;;13.50;89.00;;;;;;5026673;28;20523;-66
2021/09/04 04:13:52;;;;;;;2.63;0.95;;;13.50;89.00;;;;;;5027910;28;20017;-66
2021/09/04 04:16:19;;;;;;;3.08;1.65;;;13.50;89.00;;;;;;5029274;28;20061;-66
2021/09/04 04:18:45;;;;;;;6.28;1.38;;;13.50;89.10;;;;;;5032158;28;20029;-65
2021/09/04 04:21:12;;;;;;;2.63;1.23;;;13.50;89.20;;;;;;5029469;28;20006;-65
2021/09/04 04:23:39;;;;;;;4.03;1.05;;;13.50;89.20;;;;;;5027473;28;20022;-65
2021/09/04 04:26:05;;;;;;;4.38;0.90;;;13.50;89.10;;;;;;5022668;28;20316;-67
2021/09/04 04:28:32;;;;;;;2.58;1.35;;;13.50;89.10;;;;;;5026404;28;20563;-65
2021/09/04 04:30:58;;;;;;;4.57;1.15;;;13.40;89.10;;;;;;5029768;28;20524;-65
2021/09/04 04:33:25;;;;;;;4.68;0.90;;;13.40;89.20;;;;;;5028985;28;20096;-65
2021/09/04 04:35:51;;;;;;;5.85;2.80;;;13.40;89.40;;;;;;5029634;28;20018;-65
2021/09/04 04:38:18;;;;;;;3.13;1.23;;;13.40;89.40;;;;;;5026237;28;20033;-66
2021/09/04 04:40:44;;;;;;;6.70;1.17;;;13.40;89.30;;;;;;5026283;28;20022;-68
2021/09/04 04:43:11;;;;;;;4.13;1.17;;;13.40;89.30;;;;;;5030597;28;20026;-70
2021/09/04 04:45:38;;;;;;;39.10;28.70;;;13.40;89.30;;;;;;5031067;28;20033;-71
2021/09/04 04:48:04;;;;;;;42.05;32.72;;;13.40;89.30;;;;;;5033438;28;20492;-66
2021/09/04 04:50:31;;;;;;;5.30;3.97;;;13.50;89.50;;;;;;5030836;28;20066;-70
2021/09/04 04:52:58;;;;;;;5.80;1.92;;;13.50;89.40;;;;;;5032287;28;20025;-67
2021/09/04 04:55:24;;;;;;;1.73;1.10;;;13.50;89.20;;;;;;5030276;28;20803;-66
2021/09/04 04:57:51;;;;;;;6.45;1.60;;;13.50;89.10;;;;;;5034985;28;20503;-68
2021/09/04 05:00:18;;;;;;;6.43;2.67;;;13.40;89.00;;;;;;5036636;28;20017;-69
2021/09/04 05:02:44;;;;;;;5.80;2.08;;;13.40;89.00;;;;;;5039217;28;20009;-69
2021/09/04 05:05:11;;;;;;;1.75;0.85;;;13.40;89.10;;;;;;5032712;28;20028;-71
2021/09/04 05:07:37;;;;;;;4.70;1.75;;;13.40;89.20;;;;;;5030291;28;20100;-71
2021/09/04 05:10:05;;;;;;;5.47;1.48;;;13.40;89.10;;;;;;5029798;28;20040;-68
2021/09/04 05:12:31;;;;;;;3.47;0.90;;;13.40;89.10;;;;;;5030375;28;20024;-66
2021/09/04 05:14:57;;;;;;;3.38;1.02;;;13.40;89.10;;;;;;5028460;28;20017;-68
2021/09/04 05:17:24;;;;;;;45.72;37.13;;;13.40;89.20;;;;;;5029237;28;20025;-70
2021/09/04 05:19:51;;;;;;;123.63;92.88;;;13.40;89.50;;;;;;5027162;28;20096;-69
2021/09/04 05:22:17;;;;;;;13.07;9.25;;;13.50;89.80;;;;;;5029731;28;20018;-68
2021/09/04 05:24:44;;;;;;;2.13;1.25;;;13.40;89.60;;;;;;5030053;28;20087;-66
2021/09/04 05:27:11;;;;;;;2.60;1.08;;;13.40;89.50;;;;;;5028077;28;20144;-70
2021/09/04 05:29:37;;;;;;;3.03;1.52;;;13.40;89.80;;;;;;5029723;28;20036;-69
2021/09/04 05:32:04;;;;;;;3.15;1.13;;;13.40;89.80;;;;;;5026746;28;20021;-67
2021/09/04 05:34:30;;;;;;;6.55;1.48;;;13.40;89.80;;;;;;5029662;28;20507;-68
2021/09/04 05:36:57;;;;;;;5.05;1.17;;;13.40;90.00;;;;;;5024926;28;20049;-66
2021/09/04 05:39:23;;;;;;;3.90;0.93;;;13.40;90.00;;;;;;5027945;28;20049;-71
2021/09/04 05:41:50;;;;;;;4.00;1.05;;;13.50;90.10;;;;;;5027557;28;20020;-67
2021/09/04 05:44:16;;;;;;;3.88;1.45;;;13.40;90.20;;;;;;5028671;28;20029;-66
2021/09/04 05:46:43;;;;;;;6.05;1.25;;;13.50;90.20;;;;;;5031154;28;20021;-66
2021/09/04 05:49:09;;;;;;;4.15;1.20;;;13.50;90.50;;;;;;5027197;28;20503;-66
2021/09/04 05:51:35;;;;;;;8.30;2.65;;;13.50;90.20;;;;;;5028645;28;20026;-70
2021/09/04 05:54:02;;;;;;;3.08;0.90;;;13.60;90.20;;;;;;5028149;28;20096;-69
2021/09/04 05:56:28;;;;;;;3.20;1.13;;;13.60;90.10;;;;;;5027378;28;20053;-66
2021/09/04 05:58:55;;;;;;;4.47;1.40;;;13.60;90.10;;;;;;5027693;28;20029;-67
2021/09/04 06:01:21;;;;;;;3.42;1.30;;;13.60;90.10;;;;;;5027112;28;20122;-66
2021/09/04 06:03:48;;;;;;;4.03;1.08;;;13.60;90.10;;;;;;5028738;28;20044;-69
2021/09/04 06:06:14;;;;;;;5.35;1.80;;;13.60;90.10;;;;;;5022681;28;20093;-64
2021/09/04 06:08:41;;;;;;;5.95;1.30;;;13.60;90.10;;;;;;5028731;28;20022;-68
2021/09/04 06:11:07;;;;;;;6.22;1.38;;;13.60;90.00;;;;;;5025568;28;20041;-65
2021/09/04 06:13:34;;;;;;;7.13;1.13;;;13.60;90.00;;;;;;5032326;28;20034;-64
2021/09/04 06:16:00;;;;;;;3.55;1.20;;;13.60;90.00;;;;;;5026391;28;20098;-64
2021/09/04 06:18:26;;;;;;;5.82;1.27;;;13.60;90.10;;;;;;5035864;28;20017;-65
2021/09/04 06:20:53;;;;;;;7.03;2.03;;;13.60;90.00;;;;;;5030735;28;20107;-64
2021/09/04 06:23:19;;;;;;;4.35;2.15;;;13.70;90.10;;;;;;5024943;28;20436;-65
2021/09/04 06:25:46;;;;;;;3.58;1.73;;;13.70;90.00;;;;;;5032497;28;20490;-65
2021/09/04 06:28:12;;;;;;;6.32;1.30;;;13.70;90.00;;;;;;5028314;28;20084;-64
2021/09/04 06:30:39;;;;;;;2.60;0.70;;;13.80;90.00;;;;;;5035094;28;20113;-67
2021/09/04 06:33:05;;;;;;;5.57;1.42;;;13.70;89.90;;;;;;5034281;28;20506;-64
2021/09/04 06:36:11;;;;;;;2.88;0.88;;;13.80;90.00;;;;;;5031761;28;20029;-65
2021/09/04 06:39:17;;;;;;;3.20;1.15;;;13.80;90.00;;;;;;5032985;28;20037;-66
2021/09/04 06:41:44;;;;;;;5.68;1.63;;;13.80;90.00;;;;;;5031669;28;20431;-64
2021/09/04 06:44:10;;;;;;;4.88;1.20;;;13.80;89.90;;;;;;5025666;28;20137;-64
2021/09/04 06:46:37;;;;;;;3.65;1.63;;;13.90;89.70;;;;;;5031464;28;20053;-66
2021/09/04 06:49:03;;;;;;;6.53;1.65;;;13.90;89.50;;;;;;5029208;28;20035;-65
2021/09/04 06:51:30;;;;;;;2.05;1.08;;;13.80;90.10;;;;;;5029784;28;20048;-66
2021/09/04 06:53:56;;;;;;;3.75;1.58;;;13.90;89.70;;;;;;5030973;28;20020;-64
2021/09/04 06:56:23;;;;;;;2.05;1.10;;;13.90;89.60;;;;;;5029443;28;20042;-64
2021/09/04 06:58:49;;;;;;;5.03;1.00;;;14.00;89.30;;;;;;5033082;28;20033;-64
2021/09/04 07:01:16;;;;;;;5.55;1.15;;;14.00;89.00;;;;;;5031203;28;20052;-64
2021/09/04 07:03:42;;;;;;;3.47;1.13;;;14.00;88.90;;;;;;5033930;28;20424;-65
2021/09/04 07:06:09;;;;;;;4.28;1.33;;;13.90;88.70;;;;;;5033057;28;20029;-65
2021/09/04 07:08:36;;;;;;;4.72;1.17;;;14.00;88.70;;;;;;5032199;28;20473;-65
2021/09/04 07:11:03;;;;;;;4.45;1.40;;;13.90;88.60;;;;;;5032452;28;20025;-65
2021/09/04 07:13:29;;;;;;;5.70;1.45;;;14.00;88.50;;;;;;5030465;28;20067;-64
2021/09/04 07:15:58;;;;;;;2.38;1.00;;;13.90;88.60;;;;;;5030516;28;20025;-65
2021/09/04 07:18:24;;;;;;;6.78;1.35;;;14.00;88.70;;;;;;5030999;28;20065;-65
2021/09/04 07:20:52;;;;;;;5.47;1.20;;;14.00;88.50;;;;;;5030267;28;20032;-66
2021/09/04 07:23:19;;;;;;;5.88;1.60;;;14.00;88.70;;;;;;5032068;28;20113;-66
2021/09/04 07:25:45;;;;;;;2.42;0.88;;;14.10;88.70;;;;;;5032339;28;20463;-66
2021/09/04 07:28:12;;;;;;;4.68;1.13;;;14.10;88.70;;;;;;5029668;28;20025;-65
2021/09/04 07:30:39;;;;;;;5.93;1.30;;;14.10;88.50;;;;;;5033263;28;20018;-66
2021/09/04 07:33:05;;;;;;;5.57;1.00;;;14.10;88.60;;;;;;5028366;28;20376;-66
2021/09/04 07:35:32;;;;;;;2.58;1.08;;;14.20;88.60;;;;;;5027601;28;20021;-65
2021/09/04 07:37:59;;;;;;;2.42;0.95;;;14.20;88.40;;;;;;5031598;28;20038;-66
2021/09/04 07:40:25;;;;;;;4.45;1.58;;;14.30;88.40;;;;;;5029716;28;20520;-67
2021/09/04 07:42:52;;;;;;;5.65;1.30;;;14.30;88.50;;;;;;5030837;28;20033;-65
2021/09/04 07:45:18;;;;;;;2.95;0.90;;;14.40;88.40;;;;;;5030795;28;20488;-66
2021/09/04 07:47:45;;;;;;;5.07;1.05;;;14.50;88.10;;;;;;5033371;28;20025;-64
2021/09/04 07:50:11;;;;;;;3.50;1.10;;;14.50;88.00;;;;;;5029888;28;20037;-65
2021/09/04 07:52:38;;;;;;;3.08;1.30;;;14.60;87.60;;;;;;5033803;28;20033;-66
2021/09/04 07:55:05;;;;;;;2.00;1.10;;;14.70;87.30;;;;;;5029173;28;20049;-65
2021/09/04 07:57:31;;;;;;;3.58;1.90;;;14.70;87.20;;;;;;5033742;28;20577;-65
2021/09/04 07:59:57;;;;;;;6.25;1.30;;;14.70;87.20;;;;;;5030367;28;20421;-66
2021/09/04 08:02:24;;;;;;;2.78;1.33;;;14.80;87.10;;;;;;5027629;28;20350;-66
2021/09/04 08:04:51;;;;;;;7.25;1.88;;;14.80;87.00;;;;;;5033779;28;20035;-65
2021/09/04 08:07:17;;;;;;;7.50;1.58;;;14.80;87.10;;;;;;5030229;28;20030;-65
2021/09/04 08:09:43;;;;;;;6.70;2.97;;;14.90;87.00;;;;;;5031041;28;20018;-65
2021/09/04 08:12:10;;;;;;;5.68;1.58;;;14.90;87.20;;;;;;5030271;28;20024;-65
2021/09/04 08:14:36;;;;;;;3.70;1.05;;;14.90;87.30;;;;;;5029867;28;20029;-66
2021/09/04 08:17:03;;;;;;;7.03;1.20;;;15.00;87.80;;;;;;5030697;28;20038;-65
2021/09/04 08:19:29;;;;;;;3.80;1.38;;;15.10;88.10;;;;;;5029295;28;20025;-66
2021/09/04 08:21:56;;;;;;;3.65;1.50;;;15.10;88.10;;;;;;5031734;28;20052;-68
2021/09/04 08:24:22;;;;;;;2.67;1.10;;;15.20;88.00;;;;;;5032194;28;20472;-67
2021/09/04 08:26:49;;;;;;;4.88;1.33;;;15.30;88.10;;;;;;5026629;28;20020;-65
2021/09/04 08:29:15;;;;;;;7.07;1.63;;;15.40;88.20;;;;;;5032317;28;20022;-65
2021/09/04 08:31:42;;;;;;;4.15;1.20;;;15.50;88.10;;;;;;5032336;28;20055;-65
2021/09/04 08:34:08;;;;;;;6.78;1.10;;;15.50;87.40;;;;;;5028058;28;20109;-65
2021/09/04 08:36:35;;;;;;;3.47;1.08;;;15.60;87.10;;;;;;5030513;28;20042;-65
2021/09/04 08:39:01;;;;;;;5.18;1.98;;;15.70;86.70;;;;;;5028834;28;20010;-66
2021/09/04 08:41:28;;;;;;;2.13;1.23;;;15.70;85.70;;;;;;5025586;28;20045;-64
2021/09/04 08:43:54;;;;;;;3.80;1.55;;;15.70;85.00;;;;;;5031751;28;20030;-67
2021/09/04 08:46:21;;;;;;;9.10;3.83;;;15.80;84.70;;;;;;5032806;28;20071;-64
2021/09/04 08:48:49;;;;;;;15.88;9.38;;;15.80;83.80;;;;;;5031781;28;20036;-72
2021/09/04 08:51:16;;;;;;;5.28;2.55;;;15.90;82.50;;;;;;5032076;28;20407;-72
2021/09/04 08:53:43;;;;;;;5.30;1.33;;;15.90;78.60;;;;;;5032904;28;20018;-65
2021/09/04 08:56:10;;;;;;;1.33;0.75;;;16.00;76.90;;;;;;5026930;28;20052;-65
2021/09/04 08:58:37;;;;;;;7.20;1.02;;;16.00;76.90;;;;;;5028140;28;20037;-65
2021/09/04 09:01:17;;;;;;;7.03;1.30;;;16.00;77.00;;;;;;5025323;28;20065;-65
2021/09/04 09:03:44;;;;;;;6.68;1.60;;;16.10;77.00;;;;;;5030598;28;20021;-65
2021/09/04 09:06:12;;;;;;;2.28;0.90;;;16.20;77.10;;;;;;5027837;28;20053;-68
2021/09/04 09:08:45;;;;;;;3.75;1.08;;;16.20;77.10;;;;;;5025369;28;20021;-65
2021/09/04 09:11:11;;;;;;;5.82;1.35;;;16.30;75.10;;;;;;5029574;28;20108;-67
2021/09/04 09:14:07;;;;;;;4.55;1.38;;;16.30;73.40;;;;;;5026421;28;20049;-67
2021/09/04 09:16:34;;;;;;;18.10;11.65;;;16.30;71.90;;;;;;5029969;28;20052;-64
2021/09/04 09:19:05;;;;;;;5.00;2.67;;;16.30;72.20;;;;;;5027501;28;20033;-71
2021/09/04 09:21:40;;;;;;;3.85;1.27;;;16.40;72.70;;;;;;5030856;28;20021;-67
2021/09/04 09:24:21;;;;;;;5.95;1.92;;;16.40;72.40;;;;;;5024407;28;20048;-64
2021/09/04 09:27:00;;;;;;;27.33;19.88;;;16.50;72.20;;;;;;5029724;28;20029;-68
2021/09/04 09:29:32;;;;;;;13.65;7.72;;;16.50;72.60;;;;;;5028610;28;20116;-65
2021/09/04 09:32:03;;;;;;;5.47;2.03;;;16.60;72.70;;;;;;5032140;28;20028;-66
2021/09/04 09:34:51;;;;;;;3.50;1.20;;;16.60;72.60;;;;;;5029558;28;20017;-68
2021/09/04 09:37:17;;;;;;;3.50;1.23;;;16.60;72.40;;;;;;5029097;28;20095;-68
2021/09/04 09:39:45;;;;;;;3.65;1.35;;;16.60;72.40;;;;;;5029398;28;20049;-68
2021/09/04 09:42:13;;;;;;;7.18;2.17;;;16.50;72.70;;;;;;5029980;28;20048;-66
2021/09/04 09:44:40;;;;;;;2.47;1.13;;;16.50;72.40;;;;;;5026751;28;20017;-67
2021/09/04 09:47:11;;;;;;;2.65;1.30;;;16.50;72.00;;;;;;5030837;28;20088;-70
2021/09/04 09:49:41;;;;;;;4.53;1.70;;;16.50;71.80;;;;;;5027711;28;20060;-68
2021/09/04 09:52:10;;;;;;;3.42;1.45;;;16.40;70.70;;;;;;5024657;28;20428;-67
2021/09/04 09:54:37;;;;;;;5.72;1.65;;;16.40;70.60;;;;;;5028381;28;20099;-66
2021/09/04 09:57:09;;;;;;;4.50;1.20;;;16.40;70.70;;;;;;5026559;28;20068;-68
2021/09/04 10:00:01;;;;;;;7.00;1.67;;;16.40;70.20;;;;;;5031410;28;20503;-66
2021/09/04 10:02:29;;;;;;;3.83;1.83;;;16.30;70.60;;;;;;5031052;28;20029;-67
2021/09/04 10:04:56;;;;;;;18.00;3.60;;;16.30;72.00;;;;;;5026184;28;20582;-67
2021/09/04 10:07:22;;;;;;;7.68;2.45;;;16.30;73.00;;;;;;5029420;28;20022;-70
2021/09/04 10:09:50;;;;;;;9.18;2.33;;;16.30;73.80;;;;;;5026306;28;20357;-68
2021/09/04 10:12:17;;;;;;;6.88;2.35;;;16.30;74.40;;;;;;5028213;28;20091;-67
2021/09/04 10:14:46;;;;;;;8.38;2.13;;;16.30;74.40;;;;;;5027666;28;20172;-66
2021/09/04 10:17:13;;;;;;;10.57;2.63;;;16.20;74.30;;;;;;5030022;28;20528;-71
2021/09/04 10:19:40;;;;;;;11.20;2.25;;;16.20;74.80;;;;;;5029283;28;20124;-74
2021/09/04 10:22:10;;;;;;;11.50;6.28;;;16.20;75.20;;;;;;5025553;28;20030;-69
2021/09/04 10:24:51;;;;;;;8.82;4.07;;;16.20;75.10;;;;;;5028650;28;20033;-70
2021/09/04 10:27:36;;;;;;;10.30;2.53;;;16.20;74.40;;;;;;5025921;28;20049;-70
2021/09/04 10:30:27;;;;;;;10.88;3.00;;;16.30;74.60;;;;;;5027001;28;20030;-70
2021/09/04 10:33:09;;;;;;;11.90;2.60;;;16.40;74.50;;;;;;5030095;28;20033;-69
2021/09/04 10:35:47;;;;;;;9.32;2.03;;;16.40;74.10;;;;;;5026806;28;20048;-70
2021/09/04 10:38:20;;;;;;;5.32;1.60;;;16.60;72.40;;;;;;5032166;28;20036;-72
2021/09/04 10:41:12;;;;;;;6.57;1.48;;;16.80;71.80;;;;;;5028263;28;20385;-71
2021/09/04 10:43:43;;;;;;;13.05;1.88;;;17.00;70.70;;;;;;5029281;28;20026;-72
2021/09/04 10:46:13;;;;;;;11.18;1.75;;;17.20;71.00;;;;;;5026823;28;20044;-74
2021/09/04 10:48:59;;;;;;;10.20;1.88;;;17.50;68.70;;;;;;5029403;28;20025;-71
2021/09/04 10:52:17;;;;;;;7.80;0.95;;;17.70;68.10;;;;;;5023106;28;20480;-71
2021/09/04 10:55:06;;;;;;;9.25;1.52;;;17.90;67.70;;;;;;5020187;28;20069;-69
2021/09/04 10:58:24;;;;;;;4.28;1.52;;;18.10;65.40;;;;;;5031556;28;20199;-70
2021/09/04 11:01:00;;;;;;;4.57;1.00;;;18.20;64.30;;;;;;5030426;28;20029;-80
2021/09/04 11:03:40;;;;;;;5.70;1.40;;;18.20;62.80;;;;;;5029165;28;20030;-70
2021/09/04 11:06:08;;;;;;;4.75;1.27;;;18.20;62.20;;;;;;5025203;28;20057;-76
2021/09/04 11:08:45;;;;;;;7.57;1.67;;;18.10;62.10;;;;;;5027864;28;20550;-69
2021/09/04 11:11:28;;;;;;;7.18;2.03;;;18.10;63.20;;;;;;5030966;28;20492;-70
2021/09/04 11:14:16;;;;;;;10.07;1.98;;;18.10;64.30;;;;;;5030865;28;20033;-66
2021/09/04 11:16:47;;;;;;;8.68;2.08;;;18.00;65.30;;;;;;5045478;28;20037;-66
2021/09/04 11:19:31;;;;;;;11.68;2.65;;;18.00;65.70;;;;;;5029773;28;20025;-67
2021/09/04 11:22:06;;;;;;;8.65;1.85;;;18.10;66.10;;;;;;5029056;28;20014;-74
2021/09/04 11:24:44;;;;;;;3.60;1.80;;;18.20;65.70;;;;;;5032599;28;20120;-69
2021/09/04 11:27:17;;;;;;;10.45;2.53;;;18.10;65.70;;;;;;5027076;28;20029;-74
2021/09/04 11:29:53;;;;;;;15.13;2.47;;;18.00;66.30;;;;;;5032812;28;20068;-70
2021/09/04 11:32:29;;;;;;;13.05;4.15;;;17.90;66.90;;;;;;5026535;28;20040;-68
2021/09/04 11:34:59;;;;;;;6.63;2.55;;;17.80;66.20;;;;;;5028578;28;20060;-66
2021/09/04 11:37:45;;;;;;;9.25;2.25;;;17.70;66.70;;;;;;5027019;28;20501;-67
2021/09/04 11:40:18;;;;;;;10.98;2.80;;;17.70;67.80;;;;;;5029647;28;20025;-67
2021/09/04 11:42:46;;;;;;;5.28;2.10;;;17.70;68.10;;;;;;5028714;28;20810;-67
2021/09/04 11:45:15;;;;;;;11.45;2.80;;;17.70;66.40;;;;;;5029340;28;20041;-68
2021/09/04 11:47:45;;;;;;;11.23;2.85;;;17.70;66.70;;;;;;5032771;28;20104;-74
2021/09/04 11:50:23;;;;;;;5.35;2.10;;;17.70;67.10;;;;;;5031292;28;20014;-74
2021/09/04 11:52:51;;;;;;;9.57;2.47;;;17.70;67.50;;;;;;5031392;28;20017;-73
2021/09/04 11:55:19;;;;;;;8.60;1.90;;;17.70;67.30;;;;;;5032603;28;20067;-69
2021/09/04 11:57:53;;;;;;;4.50;2.35;;;17.70;67.40;;;;;;5027418;28;20536;-68
2021/09/04 12:00:22;;;;;;;9.10;2.95;;;17.70;67.10;;;;;;5029732;28;20029;-71
2021/09/04 12:02:50;;;;;;;8.18;1.75;;;17.80;68.00;;;;;;5029258;28;20027;-68
2021/09/04 12:05:20;;;;;;;6.07;1.80;;;17.80;68.80;;;;;;5031990;28;20459;-65
2021/09/04 12:07:47;;;;;;;10.35;2.67;;;17.80;68.50;;;;;;5028612;28;20021;-65
2021/09/04 12:10:16;;;;;;;11.50;2.40;;;17.60;69.10;;;;;;5029596;28;20192;-71
2021/09/04 12:12:45;;;;;;;9.15;2.13;;;17.50;69.90;;;;;;5029538;28;20064;-70
2021/09/04 12:15:13;;;;;;;6.93;3.53;;;17.40;69.70;;;;;;5029878;28;20052;-79
2021/09/04 12:17:51;;;;;;;8.73;2.42;;;17.40;69.60;;;;;;5031180;28;20029;-69
2021/09/04 12:20:18;;;;;;;9.73;2.67;;;17.40;69.30;;;;;;5031983;28;20071;-69
2021/09/04 12:22:45;;;;;;;17.42;3.35;;;17.40;70.00;;;;;;5028350;28;20495;-69
2021/09/04 12:25:31;;;;;;;9.55;2.35;;;17.40;71.30;;;;;;5027836;28;20350;-67
2021/09/04 12:28:01;;;;;;;11.45;3.63;;;17.40;73.80;;;;;;5027959;28;20476;-66
2021/09/04 12:30:28;;;;;;;18.58;5.45;;;17.50;75.10;;;;;;5029360;28;20036;-66
2021/09/04 12:33:10;;;;;;;10.88;3.33;;;17.60;77.00;;;;;;5029967;28;20047;-66
2021/09/04 12:35:54;;;;;;;17.40;4.50;;;17.50;76.60;;;;;;5023951;28;20112;-66
2021/09/04 12:38:32;;;;;;;9.95;3.67;;;17.50;77.30;;;;;;5026051;28;20038;-65
2021/09/04 12:41:03;;;;;;;14.02;3.53;;;17.50;77.30;;;;;;5037035;28;20100;-73
2021/09/04 12:43:31;;;;;;;12.32;2.60;;;17.40;76.10;;;;;;5029809;28;20028;-67
2021/09/04 12:46:05;;;;;;;15.70;4.15;;;17.30;74.80;;;;;;5026142;28;20023;-69
2021/09/04 12:48:39;;;;;;;11.95;2.72;;;17.30;72.60;;;;;;5027209;28;20010;-76
2021/09/04 12:51:30;;;;;;;6.73;2.17;;;17.20;70.50;;;;;;5026217;28;20068;-71
2021/09/04 12:54:39;;;;;;;12.00;3.03;;;17.20;69.60;;;;;;5024697;28;20382;-69
2021/09/04 12:57:26;;;;;;;7.22;1.75;;;17.10;67.00;;;;;;5028415;28;20373;-68